sensor_id;sensor_type;location;lat;lon;timestamp;pressure;altitude;pressure_sealevel;temperature;humidity
12791;BME280;6459;42.678;23.310;2022-07-19T00:03:05;53893.97;;;-144.00;47.37
12791;BME280;6459;42.678;23.310;2022-07-19T00:05:33;53933.81;;;-144.00;47.24
12791;BME280;6459;42.678;23.310;2022-07-19T00:08:03;53893.97;;;-144.00;47.41
12791;BME280;6459;42.678;23.310;2022-07-19T00:10:31;53921.88;;;-144.00;47.38
12791;BME280;6459;42.678;23.310;2022-07-19T00:12:59;53901.94;;;-144.00;47.36
12791;BME280;6459;42.678;23.310;2022-07-19T00:15:28;53957.72;;;-144.00;47.61
12791;BME280;6459;42.678;23.310;2022-07-19T00:17:56;53929.84;;;-144.00;47.82
12791;BME280;6459;42.678;23.310;2022-07-19T00:20:24;53905.94;;;-144.00;47.92
12791;BME280;6459;42.678;23.310;2022-07-19T00:22:53;53929.84;;;-144.00;48.25
12791;BME280;6459;42.678;23.310;2022-07-19T00:25:23;53913.91;;;-144.00;48.62
12791;BME280;6459;42.678;23.310;2022-07-19T00:27:51;53876.03;;;-144.00;48.54
12791;BME280;6459;42.678;23.310;2022-07-19T00:30:19;53949.75;;;-144.00;48.83
12791;BME280;6459;42.678;23.310;2022-07-19T00:32:47;53947.75;;;-144.00;49.18
12791;BME280;6459;42.678;23.310;2022-07-19T00:35:15;53969.69;;;-144.00;49.54
12791;BME280;6459;42.678;23.310;2022-07-19T00:37:44;53921.88;;;-144.00;49.51
12791;BME280;6459;42.678;23.310;2022-07-19T00:40:15;53937.81;;;-144.00;49.68
12791;BME280;6459;42.678;23.310;2022-07-19T00:42:50;53949.75;;;-144.00;49.94
12791;BME280;6459;42.678;23.310;2022-07-19T00:45:19;53953.75;;;-144.00;50.20
12791;BME280;6459;42.678;23.310;2022-07-19T00:47:47;53941.78;;;-144.00;50.40
12791;BME280;6459;42.678;23.310;2022-07-19T00:50:16;53949.75;;;-144.00;50.44
12791;BME280;6459;42.678;23.310;2022-07-19T00:52:48;53925.84;;;-144.00;50.69
12791;BME280;6459;42.678;23.310;2022-07-19T00:55:18;53967.69;;;-144.00;50.89
12791;BME280;6459;42.678;23.310;2022-07-19T00:57:46;53943.78;;;-144.00;50.86
12791;BME280;6459;42.678;23.310;2022-07-19T01:04:06;53937.81;;;-144.00;51.11
12791;BME280;6459;42.678;23.310;2022-07-19T01:06:34;53961.72;;;-144.00;51.11
12791;BME280;6459;42.678;23.310;2022-07-19T01:09:03;53957.72;;;-144.00;51.36
12791;BME280;6459;42.678;23.310;2022-07-19T01:11:31;53927.84;;;-144.00;51.39
12791;BME280;6459;42.678;23.310;2022-07-19T01:14:00;53937.81;;;-144.00;51.68
12791;BME280;6459;42.678;23.310;2022-07-19T01:16:28;53937.81;;;-144.00;51.46
12791;BME280;6459;42.678;23.310;2022-07-19T01:18:57;53945.78;;;-144.00;51.86
12791;BME280;6459;42.678;23.310;2022-07-19T01:21:28;53957.72;;;-144.00;51.77
12791;BME280;6459;42.678;23.310;2022-07-19T01:23:58;53965.69;;;-144.00;52.04
12791;BME280;6459;42.678;23.310;2022-07-19T01:26:26;53953.75;;;-144.00;52.19
12791;BME280;6459;42.678;23.310;2022-07-19T01:28:54;53979.63;;;-144.00;52.17
12791;BME280;6459;42.678;23.310;2022-07-19T01:31:23;53957.72;;;-144.00;52.14
12791;BME280;6459;42.678;23.310;2022-07-19T01:33:51;53979.63;;;-144.00;52.38
12791;BME280;6459;42.678;23.310;2022-07-19T01:36:19;53939.78;;;-144.00;52.45
12791;BME280;6459;42.678;23.310;2022-07-19T01:38:49;53957.72;;;-144.00;52.52
12791;BME280;6459;42.678;23.310;2022-07-19T01:41:17;53985.63;;;-144.00;52.69
12791;BME280;6459;42.678;23.310;2022-07-19T01:43:46;53955.72;;;-144.00;52.86
12791;BME280;6459;42.678;23.310;2022-07-19T01:46:14;53969.69;;;-144.00;52.81
12791;BME280;6459;42.678;23.310;2022-07-19T01:52:30;53969.69;;;-144.00;52.89
12791;BME280;6459;42.678;23.310;2022-07-19T01:54:59;53971.66;;;-144.00;52.93
12791;BME280;6459;42.678;23.310;2022-07-19T01:57:28;53969.69;;;-144.00;52.91
12791;BME280;6459;42.678;23.310;2022-07-19T01:59:56;53959.72;;;-144.00;53.13
12791;BME280;6459;42.678;23.310;2022-07-19T02:02:25;53973.66;;;-144.00;53.08
12791;BME280;6459;42.678;23.310;2022-07-19T02:04:53;53997.56;;;-144.00;53.08
12791;BME280;6459;42.678;23.310;2022-07-19T02:07:43;53989.59;;;-144.00;53.28
12791;BME280;6459;42.678;23.310;2022-07-19T02:14:01;53945.78;;;-144.00;53.71
12791;BME280;6459;42.678;23.310;2022-07-19T02:20:16;53975.66;;;-144.00;53.71
12791;BME280;6459;42.678;23.310;2022-07-19T02:22:45;53967.69;;;-144.00;54.10
12791;BME280;6459;42.678;23.310;2022-07-19T02:25:13;53997.56;;;-144.00;54.21
12791;BME280;6459;42.678;23.310;2022-07-19T02:27:41;54011.50;;;-144.00;54.16
12791;BME280;6459;42.678;23.310;2022-07-19T02:30:12;53991.59;;;-144.00;54.16
12791;BME280;6459;42.678;23.310;2022-07-19T02:32:41;53993.59;;;-144.00;54.16
12791;BME280;6459;42.678;23.310;2022-07-19T02:35:10;53977.66;;;-144.00;54.15
12791;BME280;6459;42.678;23.310;2022-07-19T02:37:39;53967.69;;;-144.00;54.07
12791;BME280;6459;42.678;23.310;2022-07-19T02:40:08;54007.53;;;-144.00;54.16
12791;BME280;6459;42.678;23.310;2022-07-19T02:42:36;53993.59;;;-144.00;54.02
12791;BME280;6459;42.678;23.310;2022-07-19T02:45:05;53989.59;;;-144.00;54.36
12791;BME280;6459;42.678;23.310;2022-07-19T02:47:35;53981.63;;;-144.00;54.21
12791;BME280;6459;42.678;23.310;2022-07-19T02:50:04;53969.69;;;-144.00;54.37
12791;BME280;6459;42.678;23.310;2022-07-19T02:56:19;54017.50;;;-144.00;54.45
12791;BME280;6459;42.678;23.310;2022-07-19T02:58:48;53973.66;;;-144.00;54.37
12791;BME280;6459;42.678;23.310;2022-07-19T03:01:16;53969.69;;;-144.00;54.60
12791;BME280;6459;42.678;23.310;2022-07-19T03:03:45;53993.59;;;-144.00;54.60
12791;BME280;6459;42.678;23.310;2022-07-19T03:06:16;53995.56;;;-144.00;54.55
12791;BME280;6459;42.678;23.310;2022-07-19T03:08:46;54001.56;;;-144.00;54.63
12791;BME280;6459;42.678;23.310;2022-07-19T03:11:14;54005.53;;;-144.00;54.82
12791;BME280;6459;42.678;23.310;2022-07-19T03:13:42;54023.47;;;-144.00;54.89
12791;BME280;6459;42.678;23.310;2022-07-19T03:16:11;53977.66;;;-144.00;54.73
12791;BME280;6459;42.678;23.310;2022-07-19T03:18:40;54033.44;;;-144.00;54.85
12791;BME280;6459;42.678;23.310;2022-07-19T03:21:09;54005.53;;;-144.00;55.07
12791;BME280;6459;42.678;23.310;2022-07-19T03:23:38;53997.56;;;-144.00;54.90
12791;BME280;6459;42.678;23.310;2022-07-19T03:26:07;53985.63;;;-144.00;55.09
12791;BME280;6459;42.678;23.310;2022-07-19T03:28:35;54001.56;;;-144.00;55.24
12791;BME280;6459;42.678;23.310;2022-07-19T03:31:03;53983.63;;;-144.00;55.13
12791;BME280;6459;42.678;23.310;2022-07-19T03:33:31;54021.47;;;-144.00;55.26
12791;BME280;6459;42.678;23.310;2022-07-19T03:36:00;54015.50;;;-144.00;55.27
12791;BME280;6459;42.678;23.310;2022-07-19T03:38:30;54005.53;;;-144.00;55.01
12791;BME280;6459;42.678;23.310;2022-07-19T03:40:58;54013.50;;;-144.00;55.03
12791;BME280;6459;42.678;23.310;2022-07-19T03:43:26;53993.59;;;-144.00;54.94
12791;BME280;6459;42.678;23.310;2022-07-19T03:46:16;53997.56;;;-144.00;54.94
12791;BME280;6459;42.678;23.310;2022-07-19T03:48:48;53981.63;;;-144.00;54.88
12791;BME280;6459;42.678;23.310;2022-07-19T03:51:17;54027.44;;;-144.00;54.73
12791;BME280;6459;42.678;23.310;2022-07-19T03:53:46;54007.53;;;-144.00;54.78
12791;BME280;6459;42.678;23.310;2022-07-19T03:56:19;53971.66;;;-144.00;54.66
12791;BME280;6459;42.678;23.310;2022-07-19T03:58:48;54055.34;;;-144.00;54.62
12791;BME280;6459;42.678;23.310;2022-07-19T04:01:16;54001.56;;;-144.00;54.61
12791;BME280;6459;42.678;23.310;2022-07-19T04:03:49;54005.53;;;-144.00;54.68
12791;BME280;6459;42.678;23.310;2022-07-19T04:06:18;53969.69;;;-144.00;54.57
12791;BME280;6459;42.678;23.310;2022-07-19T04:08:47;54009.53;;;-144.00;54.49
12791;BME280;6459;42.678;23.310;2022-07-19T04:11:16;54013.50;;;-144.00;54.45
12791;BME280;6459;42.678;23.310;2022-07-19T04:13:44;53973.66;;;-144.00;54.73
12791;BME280;6459;42.678;23.310;2022-07-19T04:16:12;54017.50;;;-144.00;54.58
12791;BME280;6459;42.678;23.310;2022-07-19T04:18:41;53971.66;;;-144.00;54.43
12791;BME280;6459;42.678;23.310;2022-07-19T04:21:09;53993.59;;;-144.00;54.38
12791;BME280;6459;42.678;23.310;2022-07-19T04:23:37;53973.66;;;-144.00;54.05
12791;BME280;6459;42.678;23.310;2022-07-19T04:26:07;53967.69;;;-144.00;54.30
12791;BME280;6459;42.678;23.310;2022-07-19T04:32:32;54013.50;;;-144.00;53.86
12791;BME280;6459;42.678;23.310;2022-07-19T04:42:51;53951.75;;;-144.00;53.10
12791;BME280;6459;42.678;23.310;2022-07-19T04:45:19;53953.75;;;-144.00;52.35
12791;BME280;6459;42.678;23.310;2022-07-19T04:47:48;53939.78;;;-144.00;52.27
12791;BME280;6459;42.678;23.310;2022-07-19T04:50:17;53949.75;;;-144.00;52.33
12791;BME280;6459;42.678;23.310;2022-07-19T04:52:45;53947.75;;;-144.00;51.82
12791;BME280;6459;42.678;23.310;2022-07-19T04:55:13;53937.81;;;-144.00;51.89
12791;BME280;6459;42.678;23.310;2022-07-19T04:57:42;53874.06;;;-144.00;52.08
12791;BME280;6459;42.678;23.310;2022-07-19T05:00:12;53816.28;;;-144.00;47.78
12791;BME280;6459;42.678;23.310;2022-07-19T05:02:41;53814.28;;;-144.00;44.10
12791;BME280;6459;42.678;23.310;2022-07-19T05:05:09;53694.75;;;-144.00;41.57
12791;BME280;6459;42.678;23.310;2022-07-19T05:07:38;53603.13;;;-144.00;39.03
12791;BME280;6459;42.678;23.310;2022-07-19T05:10:07;53581.22;;;-144.00;36.95
12791;BME280;6459;42.678;23.310;2022-07-19T05:12:35;53553.31;;;-144.00;35.70
12791;BME280;6459;42.678;23.310;2022-07-19T05:15:04;53501.53;;;-144.00;34.55
12791;BME280;6459;42.678;23.310;2022-07-19T05:17:42;53511.50;;;-144.00;33.84
12791;BME280;6459;42.678;23.310;2022-07-19T05:20:11;53455.72;;;-144.00;33.46
12791;BME280;6459;42.678;23.310;2022-07-19T05:22:42;53463.69;;;-144.00;32.69
12791;BME280;6459;42.678;23.310;2022-07-19T05:25:14;53435.78;;;-144.00;32.24
12791;BME280;6459;42.678;23.310;2022-07-19T05:27:42;53382.00;;;-144.00;31.47
12791;BME280;6459;42.678;23.310;2022-07-19T05:30:11;53419.88;;;-144.00;31.53
12791;BME280;6459;42.678;23.310;2022-07-19T05:32:39;53395.97;;;-144.00;31.60
12791;BME280;6459;42.678;23.310;2022-07-19T05:35:10;53352.13;;;-144.00;30.98
12791;BME280;6459;42.678;23.310;2022-07-19T05:37:38;53417.88;;;-144.00;30.75
12791;BME280;6459;42.678;23.310;2022-07-19T05:40:07;53336.19;;;-144.00;30.14
12791;BME280;6459;42.678;23.310;2022-07-19T05:42:35;53409.91;;;-144.00;30.63
12791;BME280;6459;42.678;23.310;2022-07-19T05:45:04;53364.09;;;-144.00;30.58
12791;BME280;6459;42.678;23.310;2022-07-19T05:47:32;53352.13;;;-144.00;29.98
12791;BME280;6459;42.678;23.310;2022-07-19T05:50:01;53384.00;;;-144.00;30.20
12791;BME280;6459;42.678;23.310;2022-07-19T05:52:30;53388.00;;;-144.00;30.46
12791;BME280;6459;42.678;23.310;2022-07-19T05:55:04;53411.91;;;-144.00;30.88
12791;BME280;6459;42.678;23.310;2022-07-19T05:57:32;53493.56;;;-144.00;32.28
12791;BME280;6459;42.678;23.310;2022-07-19T06:00:03;53533.41;;;-144.00;33.59
12791;BME280;6459;42.678;23.310;2022-07-19T06:02:31;53587.19;;;-144.00;34.65
12791;BME280;6459;42.678;23.310;2022-07-19T06:05:00;53637.00;;;-144.00;36.20
12791;BME280;6459;42.678;23.310;2022-07-19T06:07:30;53666.88;;;-144.00;37.20
12791;BME280;6459;42.678;23.310;2022-07-19T06:09:58;53722.66;;;-144.00;38.67
12791;BME280;6459;42.678;23.310;2022-07-19T06:12:28;53720.66;;;-144.00;39.55
12791;BME280;6459;42.678;23.310;2022-07-19T06:14:57;53736.59;;;-144.00;40.44
12791;BME280;6459;42.678;23.310;2022-07-19T06:17:25;53718.66;;;-144.00;40.60
12791;BME280;6459;42.678;23.310;2022-07-19T06:19:54;53730.63;;;-144.00;40.74
12791;BME280;6459;42.678;23.310;2022-07-19T06:22:22;53736.59;;;-144.00;40.67
12791;BME280;6459;42.678;23.310;2022-07-19T06:24:52;53742.56;;;-144.00;40.98
12791;BME280;6459;42.678;23.310;2022-07-19T06:27:21;53764.47;;;-144.00;40.85
12791;BME280;6459;42.678;23.310;2022-07-19T06:29:49;53724.66;;;-144.00;41.39
12791;BME280;6459;42.678;23.310;2022-07-19T06:32:19;53736.59;;;-144.00;41.77
12791;BME280;6459;42.678;23.310;2022-07-19T06:34:47;53770.47;;;-144.00;42.06
12791;BME280;6459;42.678;23.310;2022-07-19T06:37:16;53754.53;;;-144.00;41.98
12791;BME280;6459;42.678;23.310;2022-07-19T06:39:44;53762.50;;;-144.00;41.90
12791;BME280;6459;42.678;23.310;2022-07-19T06:42:13;53766.47;;;-144.00;42.32
12791;BME280;6459;42.678;23.310;2022-07-19T06:44:42;53742.56;;;-144.00;42.14
12791;BME280;6459;42.678;23.310;2022-07-19T06:47:11;53782.41;;;-144.00;42.21
12791;BME280;6459;42.678;23.310;2022-07-19T06:49:40;53794.38;;;-144.00;42.42
12791;BME280;6459;42.678;23.310;2022-07-19T06:52:09;53770.47;;;-144.00;42.27
12791;BME280;6459;42.678;23.310;2022-07-19T06:54:40;53762.50;;;-144.00;42.30
12791;BME280;6459;42.678;23.310;2022-07-19T06:57:08;53782.41;;;-144.00;42.43
12791;BME280;6459;42.678;23.310;2022-07-19T06:59:38;53792.38;;;-144.00;42.85
12791;BME280;6459;42.678;23.310;2022-07-19T07:02:06;53768.47;;;-144.00;42.55
12791;BME280;6459;42.678;23.310;2022-07-19T07:04:35;53782.41;;;-144.00;42.42
12791;BME280;6459;42.678;23.310;2022-07-19T07:07:11;53814.28;;;-144.00;42.44
12791;BME280;6459;42.678;23.310;2022-07-19T07:09:39;53794.38;;;-144.00;42.69
12791;BME280;6459;42.678;23.310;2022-07-19T07:12:07;53790.38;;;-144.00;42.26
12791;BME280;6459;42.678;23.310;2022-07-19T07:14:37;53796.34;;;-144.00;41.95
12791;BME280;6459;42.678;23.310;2022-07-19T07:17:05;53772.44;;;-144.00;41.90
12791;BME280;6459;42.678;23.310;2022-07-19T07:19:34;53736.59;;;-144.00;41.10
12791;BME280;6459;42.678;23.310;2022-07-19T07:22:02;53770.47;;;-144.00;40.83
12791;BME280;6459;42.678;23.310;2022-07-19T07:24:30;53770.47;;;-144.00;39.75
12791;BME280;6459;42.678;23.310;2022-07-19T07:27:00;53788.38;;;-144.00;40.30
12791;BME280;6459;42.678;23.310;2022-07-19T07:29:29;53766.47;;;-144.00;40.02
12791;BME280;6459;42.678;23.310;2022-07-19T07:31:58;53782.41;;;-144.00;40.24
12791;BME280;6459;42.678;23.310;2022-07-19T07:34:27;53782.41;;;-144.00;39.84
12791;BME280;6459;42.678;23.310;2022-07-19T07:37:02;53770.47;;;-144.00;39.92
12791;BME280;6459;42.678;23.310;2022-07-19T07:39:30;53746.56;;;-144.00;39.40
12791;BME280;6459;42.678;23.310;2022-07-19T07:41:58;53710.69;;;-144.00;38.18
12791;BME280;6459;42.678;23.310;2022-07-19T07:44:38;53750.53;;;-144.00;38.24
12791;BME280;6459;42.678;23.310;2022-07-19T07:47:08;53764.47;;;-144.00;37.44
12791;BME280;6459;42.678;23.310;2022-07-19T07:49:36;53738.59;;;-144.00;37.79
12791;BME280;6459;42.678;23.310;2022-07-19T07:52:05;53762.50;;;-144.00;37.80
12791;BME280;6459;42.678;23.310;2022-07-19T07:54:34;53726.63;;;-144.00;38.02
12791;BME280;6459;42.678;23.310;2022-07-19T07:57:19;53742.56;;;-144.00;37.62
12791;BME280;6459;42.678;23.310;2022-07-19T07:59:47;53756.50;;;-144.00;37.10
12791;BME280;6459;42.678;23.310;2022-07-19T08:02:17;53724.66;;;-144.00;36.56
12791;BME280;6459;42.678;23.310;2022-07-19T08:04:46;53756.50;;;-144.00;36.83
12791;BME280;6459;42.678;23.310;2022-07-19T08:07:14;53784.41;;;-144.00;36.30
12791;BME280;6459;42.678;23.310;2022-07-19T08:09:42;53724.66;;;-144.00;35.96
12791;BME280;6459;42.678;23.310;2022-07-19T08:12:11;53730.63;;;-144.00;36.30
12791;BME280;6459;42.678;23.310;2022-07-19T08:14:39;53750.53;;;-144.00;35.16
12791;BME280;6459;42.678;23.310;2022-07-19T08:17:07;53748.53;;;-144.00;34.59
12791;BME280;6459;42.678;23.310;2022-07-19T08:19:37;53698.75;;;-144.00;35.14
12791;BME280;6459;42.678;23.310;2022-07-19T08:22:05;53718.66;;;-144.00;33.77
12791;BME280;6459;42.678;23.310;2022-07-19T08:24:33;53730.63;;;-144.00;34.04
12791;BME280;6459;42.678;23.310;2022-07-19T08:27:01;53736.59;;;-144.00;34.00
12791;BME280;6459;42.678;23.310;2022-07-19T08:29:30;53754.53;;;-144.00;33.74
12791;BME280;6459;42.678;23.310;2022-07-19T08:31:58;53720.66;;;-144.00;33.25
12791;BME280;6459;42.678;23.310;2022-07-19T08:34:26;53754.53;;;-144.00;33.49
12791;BME280;6459;42.678;23.310;2022-07-19T08:36:56;53750.53;;;-144.00;33.21
12791;BME280;6459;42.678;23.310;2022-07-19T08:39:26;53716.69;;;-144.00;33.29
12791;BME280;6459;42.678;23.310;2022-07-19T08:41:55;53738.59;;;-144.00;33.32
12791;BME280;6459;42.678;23.310;2022-07-19T08:44:23;53748.53;;;-144.00;33.29
12791;BME280;6459;42.678;23.310;2022-07-19T08:46:51;53698.75;;;-144.00;33.62
12791;BME280;6459;42.678;23.310;2022-07-19T08:49:21;53712.69;;;-144.00;33.82
12791;BME280;6459;42.678;23.310;2022-07-19T08:51:50;53734.59;;;-144.00;32.92
12791;BME280;6459;42.678;23.310;2022-07-19T08:54:21;53702.72;;;-144.00;33.17
12791;BME280;6459;42.678;23.310;2022-07-19T08:56:49;53694.75;;;-144.00;33.05
12791;BME280;6459;42.678;23.310;2022-07-19T08:59:36;53758.50;;;-144.00;33.35
12791;BME280;6459;42.678;23.310;2022-07-19T09:02:04;53698.75;;;-144.00;33.19
12791;BME280;6459;42.678;23.310;2022-07-19T09:04:33;53674.84;;;-144.00;33.22
12791;BME280;6459;42.678;23.310;2022-07-19T09:07:02;53680.81;;;-144.00;33.22
12791;BME280;6459;42.678;23.310;2022-07-19T09:09:33;53706.72;;;-144.00;32.82
12791;BME280;6459;42.678;23.310;2022-07-19T09:12:05;53690.78;;;-144.00;32.84
12791;BME280;6459;42.678;23.310;2022-07-19T09:14:35;53724.66;;;-144.00;32.76
12791;BME280;6459;42.678;23.310;2022-07-19T09:17:05;53698.75;;;-144.00;32.27
12791;BME280;6459;42.678;23.310;2022-07-19T09:19:37;53696.75;;;-144.00;32.54
12791;BME280;6459;42.678;23.310;2022-07-19T09:22:09;53690.78;;;-144.00;32.36
12791;BME280;6459;42.678;23.310;2022-07-19T09:24:54;53694.75;;;-144.00;32.59
12791;BME280;6459;42.678;23.310;2022-07-19T09:27:23;53658.91;;;-144.00;32.29
12791;BME280;6459;42.678;23.310;2022-07-19T09:29:53;53698.75;;;-144.00;32.46
12791;BME280;6459;42.678;23.310;2022-07-19T09:32:23;53656.91;;;-144.00;32.21
12791;BME280;6459;42.678;23.310;2022-07-19T09:34:53;53696.75;;;-144.00;32.32
12791;BME280;6459;42.678;23.310;2022-07-19T09:37:26;53633.00;;;-144.00;32.47
12791;BME280;6459;42.678;23.310;2022-07-19T09:39:58;53684.81;;;-144.00;32.34
12791;BME280;6459;42.678;23.310;2022-07-19T09:42:34;53625.03;;;-144.00;32.44
12791;BME280;6459;42.678;23.310;2022-07-19T09:45:04;53666.88;;;-144.00;32.25
12791;BME280;6459;42.678;23.310;2022-07-19T09:47:35;53690.78;;;-144.00;31.96
12791;BME280;6459;42.678;23.310;2022-07-19T09:50:05;53686.78;;;-144.00;31.83
12791;BME280;6459;42.678;23.310;2022-07-19T09:52:37;53637.00;;;-144.00;31.43
12791;BME280;6459;42.678;23.310;2022-07-19T09:55:18;53656.91;;;-144.00;32.00
12791;BME280;6459;42.678;23.310;2022-07-19T09:57:48;53672.84;;;-144.00;32.03
12791;BME280;6459;42.678;23.310;2022-07-19T10:00:18;53635.00;;;-144.00;32.22
12791;BME280;6459;42.678;23.310;2022-07-19T10:02:51;53650.94;;;-144.00;31.93
12791;BME280;6459;42.678;23.310;2022-07-19T10:05:22;53638.97;;;-144.00;31.66
12791;BME280;6459;42.678;23.310;2022-07-19T10:07:51;53633.00;;;-144.00;31.83
12791;BME280;6459;42.678;23.310;2022-07-19T10:10:24;53637.00;;;-144.00;31.53
12791;BME280;6459;42.678;23.310;2022-07-19T10:12:58;53615.06;;;-144.00;31.66
12791;BME280;6459;42.678;23.310;2022-07-19T10:15:26;53638.97;;;-144.00;31.98
12791;BME280;6459;42.678;23.310;2022-07-19T10:18:08;53642.97;;;-144.00;31.80
12791;BME280;6459;42.678;23.310;2022-07-19T10:20:42;53613.09;;;-144.00;32.22
12791;BME280;6459;42.678;23.310;2022-07-19T10:23:13;53629.03;;;-144.00;31.94
12791;BME280;6459;42.678;23.310;2022-07-19T10:25:45;53623.03;;;-144.00;32.24
12791;BME280;6459;42.678;23.310;2022-07-19T10:28:28;53607.09;;;-144.00;31.91
12791;BME280;6459;42.678;23.310;2022-07-19T10:31:34;53623.03;;;-144.00;32.01
12791;BME280;6459;42.678;23.310;2022-07-19T10:34:05;53617.06;;;-144.00;31.59
12791;BME280;6459;42.678;23.310;2022-07-19T10:36:40;53640.97;;;-144.00;31.88
12791;BME280;6459;42.678;23.310;2022-07-19T10:42:29;53607.09;;;-144.00;31.23
12791;BME280;6459;42.678;23.310;2022-07-19T10:45:16;53631.00;;;-144.00;31.37
12791;BME280;6459;42.678;23.310;2022-07-19T10:48:08;53631.00;;;-144.00;31.76
12791;BME280;6459;42.678;23.310;2022-07-19T10:50:52;53619.06;;;-144.00;31.94
12791;BME280;6459;42.678;23.310;2022-07-19T10:53:58;53658.91;;;-144.00;32.59
12791;BME280;6459;42.678;23.310;2022-07-19T10:56:39;53631.00;;;-144.00;32.11
12791;BME280;6459;42.678;23.310;2022-07-19T10:59:52;53623.03;;;-144.00;32.01
12791;BME280;6459;42.678;23.310;2022-07-19T11:02:22;53629.03;;;-144.00;31.88
12791;BME280;6459;42.678;23.310;2022-07-19T11:05:20;53615.06;;;-144.00;31.83
12791;BME280;6459;42.678;23.310;2022-07-19T11:07:49;53629.03;;;-144.00;32.16
12791;BME280;6459;42.678;23.310;2022-07-19T11:10:21;53638.97;;;-144.00;31.88
12791;BME280;6459;42.678;23.310;2022-07-19T11:12:50;53623.03;;;-144.00;32.14
12791;BME280;6459;42.678;23.310;2022-07-19T11:15:20;53611.09;;;-144.00;31.76
12791;BME280;6459;42.678;23.310;2022-07-19T11:17:54;53631.00;;;-144.00;31.51
12791;BME280;6459;42.678;23.310;2022-07-19T11:20:24;53581.22;;;-144.00;31.58
12791;BME280;6459;42.678;23.310;2022-07-19T11:22:53;53601.13;;;-144.00;31.96
12791;BME280;6459;42.678;23.310;2022-07-19T11:25:26;53583.22;;;-144.00;32.03
12791;BME280;6459;42.678;23.310;2022-07-19T11:27:55;53601.13;;;-144.00;31.73
12791;BME280;6459;42.678;23.310;2022-07-19T11:30:28;53567.28;;;-144.00;31.40
12791;BME280;6459;42.678;23.310;2022-07-19T11:32:58;53583.22;;;-144.00;31.51
12791;BME280;6459;42.678;23.310;2022-07-19T11:35:28;53605.13;;;-144.00;31.46
12791;BME280;6459;42.678;23.310;2022-07-19T11:37:58;53579.22;;;-144.00;31.13
12791;BME280;6459;42.678;23.310;2022-07-19T11:40:33;53603.13;;;-144.00;30.91
12791;BME280;6459;42.678;23.310;2022-07-19T11:43:05;53583.22;;;-144.00;30.91
12791;BME280;6459;42.678;23.310;2022-07-19T11:45:55;53587.19;;;-144.00;30.95
12791;BME280;6459;42.678;23.310;2022-07-19T11:48:25;53607.09;;;-144.00;31.18
12791;BME280;6459;42.678;23.310;2022-07-19T11:51:12;53575.25;;;-144.00;31.47
12791;BME280;6459;42.678;23.310;2022-07-19T11:53:41;53551.34;;;-144.00;31.08
12791;BME280;6459;42.678;23.310;2022-07-19T11:56:17;53589.19;;;-144.00;30.96
12791;BME280;6459;42.678;23.310;2022-07-19T11:58:46;53619.06;;;-144.00;30.52
12791;BME280;6459;42.678;23.310;2022-07-19T12:01:23;53575.25;;;-144.00;30.88
12791;BME280;6459;42.678;23.310;2022-07-19T12:03:55;53563.28;;;-144.00;30.56
12791;BME280;6459;42.678;23.310;2022-07-19T12:06:35;53605.13;;;-144.00;30.95
12791;BME280;6459;42.678;23.310;2022-07-19T12:09:06;53575.25;;;-144.00;30.77
12791;BME280;6459;42.678;23.310;2022-07-19T12:11:40;53619.06;;;-144.00;31.01
12791;BME280;6459;42.678;23.310;2022-07-19T12:14:20;53603.13;;;-144.00;30.42
12791;BME280;6459;42.678;23.310;2022-07-19T12:19:36;53579.22;;;-144.00;30.73
12791;BME280;6459;42.678;23.310;2022-07-19T12:22:30;53579.22;;;-144.00;30.32
12791;BME280;6459;42.678;23.310;2022-07-19T12:25:00;53591.19;;;-144.00;30.46
12791;BME280;6459;42.678;23.310;2022-07-19T12:27:29;53575.25;;;-144.00;30.55
12791;BME280;6459;42.678;23.310;2022-07-19T12:29:58;53591.19;;;-144.00;30.73
12791;BME280;6459;42.678;23.310;2022-07-19T12:32:33;53579.22;;;-144.00;30.19
12791;BME280;6459;42.678;23.310;2022-07-19T12:35:03;53615.06;;;-144.00;30.71
12791;BME280;6459;42.678;23.310;2022-07-19T12:37:36;53642.97;;;-144.00;30.82
12791;BME280;6459;42.678;23.310;2022-07-19T12:40:10;53621.06;;;-144.00;31.05
12791;BME280;6459;42.678;23.310;2022-07-19T12:42:43;53633.00;;;-144.00;31.02
12791;BME280;6459;42.678;23.310;2022-07-19T12:45:13;53623.03;;;-144.00;30.88
12791;BME280;6459;42.678;23.310;2022-07-19T12:47:45;53644.97;;;-144.00;30.80
12791;BME280;6459;42.678;23.310;2022-07-19T12:50:38;53623.03;;;-144.00;30.82
12791;BME280;6459;42.678;23.310;2022-07-19T12:53:09;53595.16;;;-144.00;30.58
12791;BME280;6459;42.678;23.310;2022-07-19T12:55:39;53603.13;;;-144.00;30.58
12791;BME280;6459;42.678;23.310;2022-07-19T12:58:11;53615.06;;;-144.00;30.78
12791;BME280;6459;42.678;23.310;2022-07-19T13:00:40;53625.03;;;-144.00;30.72
12791;BME280;6459;42.678;23.310;2022-07-19T13:03:11;53646.94;;;-144.00;30.44
12791;BME280;6459;42.678;23.310;2022-07-19T13:05:39;53638.97;;;-144.00;30.59
12791;BME280;6459;42.678;23.310;2022-07-19T13:08:21;53625.03;;;-144.00;30.85
12791;BME280;6459;42.678;23.310;2022-07-19T13:10:57;53603.13;;;-144.00;30.29
12791;BME280;6459;42.678;23.310;2022-07-19T13:13:26;53599.16;;;-144.00;30.22
12791;BME280;6459;42.678;23.310;2022-07-19T13:15:54;53571.25;;;-144.00;30.38
12791;BME280;6459;42.678;23.310;2022-07-19T13:18:24;53577.22;;;-144.00;30.65
12791;BME280;6459;42.678;23.310;2022-07-19T13:20:52;53577.22;;;-144.00;30.32
12791;BME280;6459;42.678;23.310;2022-07-19T13:23:22;53603.13;;;-144.00;29.97
12791;BME280;6459;42.678;23.310;2022-07-19T13:25:50;53571.25;;;-144.00;30.30
12791;BME280;6459;42.678;23.310;2022-07-19T13:28:18;53591.19;;;-144.00;30.48
12791;BME280;6459;42.678;23.310;2022-07-19T13:30:49;53611.09;;;-144.00;30.25
12791;BME280;6459;42.678;23.310;2022-07-19T13:33:17;53621.06;;;-144.00;30.63
12791;BME280;6459;42.678;23.310;2022-07-19T13:35:47;53627.03;;;-144.00;30.33
12791;BME280;6459;42.678;23.310;2022-07-19T13:38:22;53609.09;;;-144.00;30.63